createdAt,value
2023-02-11T00:01:57.935Z,50.63
2023-02-11T00:05:02.990Z,50.15
2023-02-11T00:08:07.538Z,50.82
2023-02-11T00:11:17.027Z,49.86
2023-02-11T00:14:20.873Z,50.27
2023-02-11T00:17:30.405Z,49.96
2023-02-11T00:20:34.311Z,50.04
2023-02-11T00:23:39.566Z,50.33
2023-02-11T00:26:44.121Z,50.90
2023-02-11T00:29:53.281Z,50.17
2023-02-11T00:32:58.000Z,48.70
2023-02-11T00:36:06.722Z,48.75
2023-02-11T00:39:13.238Z,49.24
2023-02-11T00:42:17.983Z,49.16
2023-02-11T00:45:22.351Z,48.45
2023-02-11T00:48:26.488Z,48.89
2023-02-11T00:51:30.429Z,49.34
2023-02-11T00:54:34.310Z,49.00
2023-02-11T00:57:43.211Z,50.22
2023-02-11T01:00:47.102Z,49.07
2023-02-11T01:03:51.730Z,48.58
2023-02-11T01:07:05.974Z,48.59
2023-02-11T01:10:09.726Z,49.53
2023-02-11T01:13:13.773Z,48.91
2023-02-11T01:16:22.952Z,49.84
2023-02-11T01:19:35.063Z,49.51
2023-02-11T01:22:46.358Z,48.68
2023-02-11T01:25:52.718Z,49.19
2023-02-11T01:29:01.702Z,48.82
2023-02-11T01:32:10.978Z,48.77
2023-02-11T01:35:25.511Z,49.06
2023-02-11T01:38:37.221Z,50.03
2023-02-11T01:41:42.147Z,50.20
2023-02-11T01:44:47.247Z,49.41
2023-02-11T01:47:52.455Z,49.12
2023-02-11T01:51:13.277Z,49.10
2023-02-11T01:54:40.836Z,48.13
2023-02-11T01:57:57.472Z,48.17
2023-02-11T02:01:03.823Z,47.46
2023-02-11T02:04:08.705Z,47.19
2023-02-11T02:07:20.553Z,47.10
2023-02-11T02:10:28.367Z,46.59
2023-02-11T02:13:35.386Z,46.72
2023-02-11T02:16:59.256Z,47.99
2023-02-11T02:20:33.003Z,47.96
2023-02-11T02:24:05.525Z,49.32
2023-02-11T02:27:18.070Z,50.07
2023-02-11T02:30:39.030Z,50.70
2023-02-11T02:33:47.628Z,50.16
2023-02-11T02:41:03.249Z,50.27
2023-02-11T02:44:09.125Z,50.47
2023-02-11T02:47:14.006Z,49.86
2023-02-11T02:50:32.251Z,49.39
2023-02-11T02:54:01.539Z,48.51
2023-02-11T02:57:31.380Z,48.52
2023-02-11T03:00:40.733Z,48.09
2023-02-11T03:07:45.803Z,48.00
2023-02-11T03:10:53.283Z,47.69
2023-02-11T03:14:02.059Z,47.23
2023-02-11T03:17:17.982Z,47.57
2023-02-11T03:20:25.260Z,47.93
2023-02-11T03:23:50.600Z,48.47
2023-02-11T03:26:57.313Z,49.32
2023-02-11T03:30:10.760Z,48.01
2023-02-11T03:33:36.431Z,48.67
2023-02-11T03:36:46.536Z,49.32
2023-02-11T03:40:02.073Z,49.08
2023-02-11T03:43:26.423Z,49.21
2023-02-11T03:46:42.798Z,48.74
2023-02-11T03:50:00.324Z,49.19
2023-02-11T03:53:05.374Z,47.94
2023-02-11T03:56:15.350Z,47.56
2023-02-11T03:59:19.780Z,48.35
2023-02-11T04:02:28.007Z,47.97
2023-02-11T04:05:42.514Z,47.89
2023-02-11T04:08:56.755Z,47.52
2023-02-11T04:12:11.114Z,46.81
2023-02-11T04:15:14.793Z,47.69
2023-02-11T04:18:18.706Z,47.73
2023-02-11T04:21:24.519Z,48.17
2023-02-11T04:24:28.897Z,48.38
2023-02-11T04:27:42.631Z,47.93
2023-02-11T04:30:57.208Z,48.78
2023-02-11T04:34:01.148Z,48.49
2023-02-11T04:37:15.753Z,47.97
2023-02-11T04:40:19.480Z,46.88
2023-02-11T04:43:23.387Z,47.93
2023-02-11T04:46:27.689Z,47.30
2023-02-11T04:49:37.675Z,47.76
2023-02-11T04:52:41.515Z,47.64
2023-02-11T04:55:45.699Z,47.09
2023-02-11T04:58:49.345Z,47.06
2023-02-11T05:01:53.806Z,45.94
2023-02-11T05:05:02.302Z,46.21
2023-02-11T05:08:07.003Z,45.86
2023-02-11T05:11:17.655Z,45.12
2023-02-11T05:14:22.105Z,45.51
2023-02-11T05:17:25.891Z,44.64
2023-02-11T05:20:31.520Z,44.29
2023-02-11T05:23:36.020Z,45.16
2023-02-11T05:26:39.846Z,45.23
2023-02-11T05:29:53.472Z,44.87
2023-02-11T05:32:57.901Z,44.25
2023-02-11T05:36:04.541Z,43.82
2023-02-11T05:39:08.437Z,43.81
2023-02-11T05:42:13.340Z,43.62
2023-02-11T05:45:17.412Z,43.47
2023-02-11T05:48:21.169Z,44.94
2023-02-11T05:51:27.708Z,44.12
2023-02-11T05:54:31.963Z,44.73
2023-02-11T05:57:46.077Z,43.97
2023-02-11T06:00:55.092Z,43.39
2023-02-11T06:03:59.361Z,43.13
2023-02-11T06:07:05.276Z,43.35
2023-02-11T06:10:10.784Z,43.21
2023-02-11T06:13:15.983Z,44.00
2023-02-11T06:16:32.030Z,44.97
2023-02-11T06:19:36.421Z,44.20
2023-02-11T06:22:40.985Z,44.50
2023-02-11T06:25:47.638Z,42.89
2023-02-11T06:28:57.120Z,44.35
2023-02-11T06:32:06.088Z,43.28
2023-02-11T06:35:12.092Z,42.68
2023-02-11T06:38:16.279Z,44.12
2023-02-11T06:41:21.149Z,43.71
2023-02-11T06:44:25.606Z,43.28
2023-02-11T06:47:29.816Z,43.99
2023-02-11T06:50:43.989Z,44.46
2023-02-11T06:53:48.350Z,43.92
2023-02-11T06:56:56.748Z,43.72
2023-02-11T07:00:00.741Z,43.53
2023-02-11T07:03:16.982Z,43.20
2023-02-11T07:06:25.350Z,43.87
2023-02-11T07:09:33.946Z,43.26
2023-02-11T07:12:47.691Z,43.20
2023-02-11T07:16:06.541Z,43.69
2023-02-11T07:19:10.638Z,43.53
2023-02-11T07:22:14.771Z,43.53
2023-02-11T07:25:19.116Z,43.39
2023-02-11T07:28:29.089Z,43.66
2023-02-11T07:31:40.779Z,43.27
2023-02-11T07:34:44.511Z,43.29
2023-02-11T07:37:49.025Z,42.84
2023-02-11T07:40:52.895Z,43.01
2023-02-11T07:43:57.431Z,43.56
2023-02-11T07:47:06.471Z,43.24
2023-02-11T07:50:11.089Z,43.67
2023-02-11T07:53:15.122Z,43.24
2023-02-11T07:56:24.119Z,43.51
2023-02-11T07:59:28.330Z,42.78
2023-02-11T08:02:32.630Z,42.55
2023-02-11T08:05:39.382Z,42.94
2023-02-11T08:08:53.196Z,44.25
2023-02-11T08:11:57.387Z,42.40
2023-02-11T08:15:06.542Z,43.38
2023-02-11T08:18:18.107Z,43.34
2023-02-11T08:21:22.385Z,44.69
2023-02-11T08:24:36.187Z,43.94
2023-02-11T08:27:41.465Z,43.45
2023-02-11T08:30:45.850Z,42.58
2023-02-11T08:33:50.083Z,43.70
2023-02-11T08:37:04.984Z,42.97
2023-02-11T08:40:20.161Z,43.17
2023-02-11T08:43:24.094Z,43.21
2023-02-11T08:46:33.016Z,44.21
2023-02-11T08:49:37.964Z,43.72
2023-02-11T08:52:46.604Z,44.17
2023-02-11T08:55:52.102Z,44.01
2023-02-11T08:58:57.150Z,44.16
2023-02-11T09:02:06.465Z,44.38
2023-02-11T09:05:10.444Z,44.84
2023-02-11T09:08:24.162Z,44.82
2023-02-11T09:11:36.033Z,44.21
2023-02-11T09:14:40.106Z,44.56
2023-02-11T09:17:44.230Z,44.41
2023-02-11T09:21:05.381Z,44.77
2023-02-11T09:24:14.613Z,44.13
2023-02-11T09:27:18.676Z,43.98
2023-02-11T09:30:23.348Z,43.98
2023-02-11T09:33:39.540Z,44.57
2023-02-11T09:36:55.113Z,43.72
2023-02-11T09:40:02.103Z,44.54
2023-02-11T09:43:17.284Z,44.77
2023-02-11T09:46:23.883Z,44.64
2023-02-11T09:49:43.210Z,43.97
2023-02-11T09:53:01.364Z,44.96
2023-02-11T09:56:25.740Z,45.01
2023-02-11T09:59:41.173Z,45.76
2023-02-11T10:03:22.250Z,45.11
2023-02-11T10:06:40.009Z,43.32
2023-02-11T10:10:16.332Z,43.95
2023-02-11T10:13:33.989Z,44.35
2023-02-11T10:20:38.232Z,45.14
2023-02-11T10:23:47.961Z,45.70
2023-02-11T10:27:09.282Z,44.81
2023-02-11T10:30:33.359Z,45.26
2023-02-11T10:33:54.882Z,44.62
2023-02-11T10:37:13.852Z,44.73
2023-02-11T10:40:24.637Z,44.70
2023-02-11T10:43:33.769Z,44.62
2023-02-11T10:46:40.848Z,44.78
2023-02-11T10:49:46.967Z,44.12
2023-02-11T10:53:24.821Z,44.14
2023-02-11T10:56:37.689Z,44.35
2023-02-11T10:59:43.852Z,44.26
2023-02-11T11:02:55.679Z,44.12
2023-02-11T11:06:02.875Z,44.95
2023-02-11T11:09:31.920Z,45.07
2023-02-11T11:12:49.324Z,45.22
2023-02-11T11:19:31.176Z,44.18
2023-02-11T11:22:36.656Z,44.33
2023-02-11T11:25:46.478Z,45.18
2023-02-11T11:28:50.926Z,44.88
2023-02-11T11:32:05.185Z,44.92
2023-02-11T11:35:44.161Z,44.81
2023-02-11T11:39:00.400Z,45.60
2023-02-11T11:42:40.492Z,45.98
2023-02-11T11:46:00.058Z,46.26
2023-02-11T11:49:31.245Z,46.80
2023-02-11T11:53:05.899Z,46.97
2023-02-11T11:56:24.101Z,47.14
2023-02-11T11:59:30.704Z,47.72
2023-02-11T12:02:56.914Z,47.43
2023-02-11T12:06:14.160Z,47.65
2023-02-11T12:09:50.808Z,48.31
2023-02-11T12:13:23.259Z,47.80
2023-02-11T12:17:04.537Z,48.10
2023-02-11T12:20:30.774Z,48.15
2023-02-11T12:24:12.535Z,48.28
2023-02-11T12:27:37.095Z,47.43
2023-02-11T12:34:52.444Z,48.22
2023-02-11T12:38:08.810Z,48.11
2023-02-11T12:41:44.468Z,48.64
2023-02-11T12:49:05.850Z,49.58
2023-02-11T12:56:01.976Z,49.74
2023-02-11T12:59:14.455Z,50.08
2023-02-11T13:02:37.288Z,49.75
2023-02-11T13:05:42.572Z,50.10
2023-02-11T13:08:52.107Z,50.25
2023-02-11T13:12:23.525Z,49.95
2023-02-11T13:15:27.668Z,49.74
2023-02-11T13:18:38.288Z,49.81
2023-02-11T13:22:37.085Z,50.11
2023-02-11T13:30:47.197Z,50.50
2023-02-11T13:34:01.736Z,51.17
2023-02-11T13:37:06.280Z,50.71
2023-02-11T13:40:20.139Z,51.02
2023-02-11T13:43:29.232Z,50.14
2023-02-11T13:47:00.148Z,50.64
2023-02-11T13:50:08.702Z,50.27
2023-02-11T13:53:15.063Z,50.81
2023-02-11T13:56:37.113Z,50.93
2023-02-11T13:59:48.189Z,51.62
2023-02-11T14:03:30.678Z,51.56
2023-02-11T14:06:57.874Z,51.95
2023-02-11T14:10:01.595Z,52.17
2023-02-11T14:13:30.096Z,51.94
2023-02-11T14:20:44.462Z,51.71
2023-02-11T14:23:54.324Z,52.59
2023-02-11T14:31:13.452Z,52.46
2023-02-11T14:34:47.630Z,52.64
2023-02-11T14:38:13.534Z,52.66
2023-02-11T14:41:25.436Z,52.02
2023-02-11T14:44:33.643Z,52.76
2023-02-11T14:47:41.579Z,52.51
2023-02-11T14:50:52.699Z,51.83
2023-02-11T14:54:25.365Z,51.40
2023-02-11T14:57:34.160Z,51.22
2023-02-11T15:01:06.896Z,51.45
2023-02-11T15:04:27.112Z,51.46
2023-02-11T15:07:36.076Z,51.33
2023-02-11T15:10:50.980Z,51.84
2023-02-11T15:14:08.512Z,51.41
2023-02-11T15:17:23.730Z,52.35
2023-02-11T15:20:32.205Z,52.00
2023-02-11T15:24:00.329Z,52.64
2023-02-11T15:27:15.915Z,52.85
2023-02-11T15:30:24.999Z,51.73
2023-02-11T15:33:32.490Z,51.48
2023-02-11T15:36:36.804Z,52.31
2023-02-11T15:39:51.568Z,52.19
2023-02-11T15:43:04.022Z,52.49
2023-02-11T15:46:10.062Z,53.12
2023-02-11T15:49:19.641Z,52.26
2023-02-11T15:52:35.477Z,51.52
2023-02-11T15:55:42.317Z,51.43
2023-02-11T15:58:50.004Z,51.45
2023-02-11T16:01:55.006Z,51.74
2023-02-11T16:05:31.540Z,51.35
2023-02-11T16:08:38.046Z,52.73
2023-02-11T16:11:48.370Z,51.75
2023-02-11T16:14:52.740Z,51.57
2023-02-11T16:17:57.194Z,51.24
2023-02-11T16:21:03.006Z,51.62
2023-02-11T16:24:08.446Z,51.82
2023-02-11T16:27:36.929Z,51.72
2023-02-11T16:30:55.816Z,52.39
2023-02-11T16:37:32.998Z,51.40
2023-02-11T16:40:37.731Z,51.60
2023-02-11T16:43:41.960Z,51.74
2023-02-11T16:46:46.563Z,51.81
2023-02-11T16:49:50.643Z,51.94
2023-02-11T16:53:00.071Z,51.47
2023-02-11T16:56:18.442Z,52.33
2023-02-11T16:59:22.733Z,51.91
2023-02-11T17:02:35.504Z,52.24
2023-02-11T17:05:54.447Z,51.65
2023-02-11T17:08:59.972Z,51.78
2023-02-11T17:12:03.583Z,52.18
2023-02-11T17:15:12.239Z,51.45
2023-02-11T17:18:16.528Z,51.87
2023-02-11T17:21:36.161Z,52.20
2023-02-11T17:24:46.183Z,51.56
2023-02-11T17:28:00.169Z,51.16
2023-02-11T17:31:08.854Z,51.26
2023-02-11T17:34:13.990Z,50.32
2023-02-11T17:37:27.829Z,51.06
2023-02-11T17:40:42.053Z,51.94
2023-02-11T17:43:46.191Z,51.00
2023-02-11T17:46:49.821Z,50.00
2023-02-11T17:49:53.888Z,50.06
2023-02-11T17:52:59.419Z,50.07
2023-02-11T17:56:08.052Z,51.10
2023-02-11T17:59:14.008Z,50.56
2023-02-11T18:02:18.278Z,50.56
2023-02-11T18:05:41.162Z,48.81
2023-02-11T18:09:13.632Z,49.36
2023-02-11T18:12:25.529Z,49.75
2023-02-11T18:15:30.535Z,50.58
2023-02-11T18:18:35.373Z,50.74
2023-02-11T18:21:39.953Z,50.22
2023-02-11T18:24:44.085Z,49.68
2023-02-11T18:27:52.962Z,50.51
2023-02-11T18:31:00.909Z,50.49
2023-02-11T18:34:14.617Z,50.52
2023-02-11T18:37:18.310Z,50.06
2023-02-11T18:40:22.635Z,50.11
2023-02-11T18:43:32.036Z,50.00
2023-02-11T18:46:36.301Z,49.73
2023-02-11T18:49:40.456Z,48.89
2023-02-11T18:52:44.053Z,49.34
2023-02-11T18:55:50.692Z,49.20
2023-02-11T18:59:06.881Z,49.30
2023-02-11T19:02:16.307Z,49.58
2023-02-11T19:05:20.382Z,49.80
2023-02-11T19:08:24.355Z,49.69
2023-02-11T19:11:52.648Z,49.64
2023-02-11T19:14:59.523Z,49.86
2023-02-11T19:18:08.443Z,49.98
2023-02-11T19:21:13.606Z,49.46
2023-02-11T19:24:23.960Z,48.97
2023-02-11T19:27:30.904Z,49.02
2023-02-11T19:30:36.982Z,49.63
2023-02-11T19:33:41.355Z,48.75
2023-02-11T19:36:51.182Z,49.41
2023-02-11T19:39:55.104Z,48.82
2023-02-11T19:42:59.345Z,49.13
2023-02-11T19:46:05.379Z,49.83
2023-02-11T19:49:10.473Z,49.58
2023-02-11T19:52:14.433Z,49.45
2023-02-11T19:55:19.481Z,49.24
2023-02-11T19:58:36.904Z,49.69
2023-02-11T20:01:53.597Z,49.22
2023-02-11T20:04:57.595Z,50.02
2023-02-11T20:08:01.885Z,49.43
2023-02-11T20:11:17.958Z,48.57
2023-02-11T20:14:21.858Z,48.09
2023-02-11T20:17:25.731Z,47.17
2023-02-11T20:20:39.893Z,47.10
2023-02-11T20:23:54.880Z,47.70
2023-02-11T20:26:59.247Z,47.03
2023-02-11T20:30:03.808Z,47.22
2023-02-11T20:33:07.946Z,47.03
2023-02-11T20:36:24.400Z,46.94
2023-02-11T20:39:28.998Z,46.60
2023-02-11T20:42:32.843Z,47.67
2023-02-11T20:45:36.860Z,47.45
2023-02-11T20:48:40.778Z,47.84
2023-02-11T20:51:48.090Z,47.63
2023-02-11T20:54:52.069Z,48.27
2023-02-11T20:57:58.045Z,49.00
2023-02-11T21:01:17.204Z,49.13
2023-02-11T21:04:25.454Z,49.87
2023-02-11T21:07:35.741Z,49.43
2023-02-11T21:10:41.311Z,48.71
2023-02-11T21:13:55.048Z,48.14
2023-02-11T21:17:04.227Z,47.57
2023-02-11T21:20:12.967Z,46.72
2023-02-11T21:23:17.006Z,46.51
2023-02-11T21:26:20.829Z,46.69
2023-02-11T21:29:45.732Z,46.69
2023-02-11T21:32:59.345Z,46.77
2023-02-11T21:36:05.442Z,46.93
2023-02-11T21:39:20.673Z,48.74
2023-02-11T21:42:26.439Z,48.38
2023-02-11T21:45:32.364Z,47.15
2023-02-11T21:48:46.291Z,46.49
2023-02-11T21:51:50.633Z,46.24
2023-02-11T21:54:54.238Z,46.80
2023-02-11T21:58:00.360Z,46.16
2023-02-11T22:01:17.846Z,46.50
2023-02-11T22:04:27.458Z,46.51
2023-02-11T22:07:32.450Z,46.13
2023-02-11T22:10:41.408Z,46.24
2023-02-11T22:13:47.715Z,45.81
2023-02-11T22:16:51.588Z,46.46
2023-02-11T22:19:57.739Z,45.82
2023-02-11T22:23:06.617Z,46.21
2023-02-11T22:26:14.029Z,46.56
2023-02-11T22:29:19.633Z,47.08
2023-02-11T22:32:23.929Z,46.32
2023-02-11T22:35:34.882Z,45.83
2023-02-11T22:38:44.561Z,45.93
2023-02-11T22:41:57.949Z,46.53
2023-02-11T22:45:01.826Z,46.58
2023-02-11T22:48:17.259Z,46.69
2023-02-11T22:51:26.875Z,46.03
2023-02-11T22:54:31.918Z,45.98
2023-02-11T22:57:35.976Z,46.25
2023-02-11T23:00:42.022Z,46.99
2023-02-11T23:03:55.222Z,46.69
2023-02-11T23:06:59.569Z,45.46
2023-02-11T23:10:03.728Z,46.24
2023-02-11T23:13:08.627Z,46.77
2023-02-11T23:16:16.045Z,45.87
2023-02-11T23:19:20.466Z,46.61
2023-02-11T23:22:27.620Z,47.99
2023-02-11T23:25:32.083Z,48.14
2023-02-11T23:28:35.778Z,47.22
2023-02-11T23:31:43.845Z,47.34
2023-02-11T23:34:58.950Z,46.93
2023-02-11T23:38:02.915Z,47.55
2023-02-11T23:41:17.744Z,47.66
2023-02-11T23:44:27.569Z,48.04
2023-02-11T23:47:31.921Z,48.18
2023-02-11T23:50:40.044Z,47.62
2023-02-11T23:53:46.373Z,47.76
2023-02-11T23:56:50.049Z,48.57
2023-02-11T23:59:54.211Z,47.96
